Weather observations for the past three days for
Tappahannock-Essex County Airport
Imperial (Metric)
Date Time (edt) Wind (mph) Vis. (mi.) Weather Sky Cond. Temperature (ºF) Relative Humidity Wind Chill (°F) Heat Index (°F) Pressure Precipitation (in)
Air Dwpt 6 hour altimeter (in) sea level (mb) 1 hr 3 hr 6 hr
Max. Min.
04 18:35 Calm 0.00 Thunderstorm in Vicinity OVC060 83.8 73.9 72% 91 29.92 0.0
04 18:15 Calm 0.00 Mostly Cloudy BKN060 BKN080 84.7 73.6 69% 92 29.92 0.0
04 17:55 Calm 0.00 Thunderstorm in Vicinity CLR 84.2 74.7 73% 92 29.91 0.0
04 17:35 Calm 0.00 Fair CLR 85.1 74.3 70% 93 29.9 0.0
04 17:15 Calm 0.00 Fair CLR 88.2 72 59% 95 29.89 0.0
04 16:55 Calm 0.00 Fair CLR 89.6 72.1 56% 97 29.9 0.0
04 16:35 Calm 0.00 Fair CLR 92.3 70.9 50% 99 29.89 0.0
04 16:15 N 5 0.00 Fair CLR 95 70 44% 101 29.89 0.0
04 15:55 Calm 0.00 Fair CLR 94.1 70 46% 100 29.91 0.0
04 15:35 Calm 0.00 Fair CLR 93.9 69.8 46% 100 29.91 0.0
04 15:15 Calm 0.00 Fair CLR 93.6 69.6 46% 99 29.92 0.0
04 14:55 Calm 0.00 Fair CLR 93 68.9 45% 98 29.93 0.0
04 14:35 Calm 0.00 Fair CLR 93.9 69.4 45% 100 29.93 0.0
04 14:15 Calm 0.00 Fair CLR 93 68.7 45% 98 29.94 0.0
04 13:55 Calm 0.00 Fair CLR 93.4 68.5 93.7 75 44% 98 29.95 0.0
04 13:35 Calm 0.00 Fair CLR 93.7 69.8 46% 100 29.95 0.0
04 13:15 Calm 0.00 Fair CLR 92.7 70.9 49% 99 29.95 0.0
04 12:55 Calm 0.00 Fair CLR 92.1 71.2 51% 99 29.95 0.0
04 12:35 Calm 0.00 Fair CLR 91.8 72.3 53% 100 29.96 0.0
04 11:35 Calm 0.00 Fair CLR 87.4 74.7 66% 97 29.97 0.0
04 11:15 Calm 0.00 Fair CLR 86.9 75.4 69% 97 29.98 0.0
04 10:55 Calm 0.00 Fair CLR 85.1 74.7 71% 93 29.97 0.0
04 10:35 Calm 0.00 Fair CLR 84.2 75.2 74% 92 29.97 0.0
04 10:15 Calm 0.00 Fair CLR 82.9 75 77% 90 29.97 0.0
04 09:55 Calm 0.00 Fair CLR 82.4 74.5 77% 89 29.97 0.0
04 09:35 Calm 0.00 Fair CLR 81.5 74.3 79% 87 29.97 0.0
04 09:15 Calm 0.00 Fair CLR 80.4 74.3 82% 85 29.97 0.0
04 08:55 Calm 0.00 Fair CLR 80.4 73.6 80% 85 29.96 0.0
04 08:35 Calm 0.00 Fair CLR 79 74.1 85% 83 29.95 0.0
04 08:15 Calm 0.00 NULL NULL 77 74.5 92% 78 29.96 0.0
04 07:55 Calm 0.00 NULL NULL 74.8 74.8 76.3 71.2 100% 29.95 0.0
04 07:35 Calm 0.00 NULL NULL 72.9 72.9 100% 29.95 0.0
04 07:15 Calm 0.00 NULL NULL 71.6 71.6 100% 29.95 0.0
04 06:55 Calm 0.00 NULL NULL 71.6 71.6 100% 29.95 0.0
04 06:35 Calm 0.00 NULL NULL 72.1 72.1 100% 29.95 0.0
04 06:15 Calm 0.00 NULL NULL 72.5 72.5 100% 29.95 0.0
04 05:55 Calm 0.00 NULL NULL 72 72 100% 29.95 0.0
04 05:35 Calm 0.00 NULL NULL 72.1 72.1 100% 29.95 0.0
04 05:15 Calm 0.00 NULL NULL 72.1 72.1 100% 29.95 0.0
04 04:55 Calm 0.00 NULL NULL 73 73 100% 29.96 0.0
04 04:35 Calm 0.00 NULL NULL 73.4 73.4 100% 29.96 0.0
04 04:15 Calm 0.00 NULL NULL 73 73 100% 29.94 0.0
04 03:55 Calm 0.00 NULL NULL 73.4 73.4 100% 29.95 0.0
04 03:35 Calm 0.00 NULL NULL 73.4 73.4 100% 29.94 0.0
04 03:15 Calm 0.00 NULL NULL 73.4 73.4 100% 29.94 0.0
04 02:55 Calm 0.00 NULL NULL 73.6 73.6 100% 29.94 0.0
04 02:35 Calm 0.00 NULL NULL 74.3 74.3 100% 29.95 0.0
04 02:15 Calm 0.00 NULL NULL 75.2 74.3 97% 73 29.98 0.0
04 01:55 Calm 0.00 Thunderstorm in Vicinity SCT020 BKN030 OVC110 76.3 71.2 82.6 76.3 84% 77 30.02 0.0
04 01:35 Calm 0.00 NULL NULL 80.2 80.2 100% 88 29.95 0.0
04 01:15 Calm 0.00 NULL NULL 80.6 80.6 100% 89 29.94 0.0
04 00:55 Calm 0.00 Thunderstorm NULL 82.6 78.4 87% 92 29.95 0.0
04 00:35 Calm 0.00 Mostly Cloudy BKN090 BKN110 82 78.8 90% 92 29.95 0.0
04 00:15 Calm 0.00 NULL NULL 81.5 79.2 93% 91 29.95 0.0
03 23:55 Calm 0.00 Thunderstorm in Vicinity NULL 81.5 79.5 94% 91 29.94 0.0
03 23:35 Calm 0.00 NULL NULL 82 78.4 89% 91 29.95 0.0
03 23:15 Calm 0.00 NULL NULL 81.7 77.9 88% 90 29.95 0.0
03 22:55 Calm 0.00 NULL NULL 81 76.8 87% 88 29.96 0.0
03 22:35 Calm 0.00 NULL NULL 80.2 77 90% 86 29.96 0.0
03 22:15 Calm 0.00 NULL NULL 77.2 77.2 100% 78 29.96 0.0
03 21:55 Calm 0.00 NULL NULL 78.3 78.3 100% 81 29.97 0.0
03 21:35 Calm 0.00 NULL NULL 78.1 78.1 100% 81 29.98 0.0
03 21:15 Calm 0.00 NULL NULL 79.2 79.2 100% 84 29.99 0.0
03 20:55 Calm 0.00 NULL NULL 79.5 79.3 99% 85 29.99 0.0
03 20:35 Calm 0.00 NULL NULL 80.6 78.8 94% 88 29.99 0.0
03 20:15 Calm 0.00 NULL NULL 81.3 77.2 87% 89 29.98 0.0
03 19:55 Calm 0.00 Fair CLR 82.8 77 95.4 82.8 83% 92 29.96 0.0
03 19:35 Calm 0.00 Fair CLR 83.5 77 81% 93 29.96 0.0
03 19:15 Calm 0.00 Fair CLR 86.5 77 73% 98 29.96 0.0
03 18:55 Calm 0.00 Fair CLR 89.8 77.2 67% 103 29.96 0.0
03 18:35 Calm 0.00 Fair CLR 92.3 75.2 58% 104 29.95 0.0
03 18:15 Calm 0.00 Fair CLR 91.8 75.9 60% 104 29.96 0.0
03 17:55 N 6 0.00 Fair CLR 91.9 75.9 60% 104 29.96 0.0
03 17:35 Calm 0.00 Fair CLR 91.8 76.3 61% 104 29.96 0.0
03 17:15 Calm 0.00 Fair CLR 92.3 76.1 59% 105 29.97 0.0
03 16:55 Calm 0.00 Fair CLR 91.6 75.2 59% 103 29.96 0.0
03 16:35 N 6 0.00 Fair CLR 94.6 73.6 51% 105 29.97 0.0
03 16:15 Calm 0.00 Fair CLR 94.3 72.5 49% 103 29.98 0.0
03 15:55 Calm 0.00 Partly Cloudy SCT044 95.2 74.1 51% 106 29.98 0.0
03 15:35 Calm 0.00 Partly Cloudy SCT044 SCT060 92.7 75.2 57% 104 29.98 0.0
03 15:15 Calm 0.00 Mostly Cloudy SCT044 BKN060 BKN075 92.1 76.5 60% 105 29.99 0.0
03 14:55 Calm 0.00 Partly Cloudy SCT042 93.4 74.7 55% 104 30 0.0
03 14:35 Calm 0.00 Partly Cloudy SCT042 94.3 74.8 53% 106 30 0.0
03 14:15 Calm 0.00 Fair CLR 93.4 75.4 56% 105 30.02 0.0
03 13:55 Calm 0.00 Fair CLR 92.3 75.7 92.3 73.2 59% 104 30.02 0.0
03 13:35 Calm 0.00 Partly Cloudy SCT030 90.9 75.6 61% 102 30.03 0.0
03 13:15 Calm 0.00 Partly Cloudy SCT030 90.5 75.9 62% 102 30.03 0.0
03 12:55 Calm 0.00 Fair CLR 89.6 75.4 63% 100 30.04 0.0
03 12:35 N 8 0.00 Fair CLR 87.8 75.4 67% 98 30.05 0.0
03 12:15 Calm 0.00 Partly Cloudy SCT020 87.4 75.6 68% 98 30.05 0.0
03 11:55 Calm 0.00 Mostly Cloudy BKN018 86 75.6 71% 96 30.05 0.0
03 11:35 Calm 0.00 Mostly Cloudy BKN016 85.5 75.9 73% 95 30.06 0.0
03 11:15 Calm 0.00 Mostly Cloudy BKN014 84.7 75.9 75% 94 30.05 0.0
03 10:55 Calm 0.00 Overcast OVC012 82 76.8 84% 90 30.06 0.0
03 10:35 Calm 0.00 Overcast OVC006 80.8 77.4 89% 88 30.06 0.0
03 10:15 Calm 0.00 Overcast OVC006 79.7 77.9 94% 85 30.06 0.0
03 09:55 Calm 0.00 Overcast OVC004 78.6 78.1 98% 82 30.05 0.0
03 09:35 Calm 0.00 Overcast OVC004 79.2 77.7 95% 84 30.06 0.0
03 09:15 Calm 0.00 Overcast OVC004 78.1 77.9 99% 81 30.06 0.0
03 08:55 Calm 0.00 Overcast OVC002 76.3 76.3 100% 76 30.06 0.0
03 08:35 Calm 0.00 Overcast OVC002 75.2 75.2 100% 73 30.06 0.0
03 08:15 Calm 0.00 Overcast OVC002 74.1 74.1 100% 30.06 0.0
03 07:55 Calm 0.00 Mostly Cloudy BKN002 BKN008 73 73 73 69.4 100% 30.06 0.0
03 07:35 Calm 0.00 NULL NULL 71.1 71.1 100% 30.05 0.0
03 07:15 Calm 0.00 NULL NULL 70.9 70.9 100% 30.04 0.0
03 06:55 Calm 0.00 NULL NULL 69.8 69.8 100% 30.04 0.0
03 06:35 Calm 0.00 NULL NULL 70 70 100% 30.03 0.0
03 06:15 Calm 0.00 NULL NULL 69.8 69.8 100% 30.03 0.0
03 05:55 Calm 0.00 NULL NULL 70.3 70.3 100% 30.03 0.0
03 05:35 Calm 0.00 NULL NULL 70.9 70.9 100% 30.03 0.0
03 05:15 Calm 0.00 NULL NULL 70.5 70.5 100% 30.03 0.0
03 04:55 Calm 0.00 NULL NULL 70 70 100% 30.03 0.0
03 04:35 Calm 0.00 NULL NULL 71.1 71.1 100% 30.03 0.0
03 04:15 Calm 0.00 NULL NULL 70.9 70.9 100% 30.03 0.0
03 03:55 Calm 0.00 NULL NULL 70.9 70.9 100% 30.02 0.0
03 03:35 Calm 0.00 NULL NULL 70.5 70.5 100% 30.02 0.0
03 03:15 Calm 0.00 NULL NULL 70.5 70.5 100% 30.02 0.0
03 02:55 Calm 0.00 NULL NULL 71.1 71.1 100% 30.03 0.0
03 02:35 Calm 0.00 NULL NULL 70.7 70.7 100% 30.04 0.0
03 02:15 Calm 0.00 NULL NULL 71.1 71.1 100% 30.05 0.0
03 01:55 Calm 0.00 NULL NULL 72 72 80.1 71.6 100% 30.05 0.0
03 01:35 Calm 0.00 NULL NULL 72 72 100% 30.06 0.0
03 01:15 Calm 0.00 NULL NULL 72.3 72.3 100% 30.06 0.0
03 00:35 Calm 0.00 NULL NULL 72.9 72.9 100% 30.05 0.0
03 00:15 Calm 0.00 NULL NULL 73.9 73.9 100% 30.05 0.0
02 23:55 Calm 0.00 NULL NULL 74.3 74.3 100% 30.04 0.0
02 23:35 Calm 0.00 NULL NULL 74.7 74.7 100% 30.04 0.0
02 23:15 Calm 0.00 NULL NULL 75.2 75.2 100% 73 30.04 0.0
02 22:55 Calm 0.00 NULL NULL 75.4 75.4 100% 73 30.05 0.0
02 22:35 Calm 0.00 NULL NULL 75.2 75.2 100% 73 30.04 0.0
02 22:15 Calm 0.00 NULL NULL 74.8 74.8 100% 30.05 0.0
02 21:55 Calm 0.00 NULL NULL 76.1 76.1 100% 75 30.05 0.0
02 21:35 Calm 0.00 NULL NULL 76.1 76.1 100% 75 30.06 0.0
02 21:15 Calm 0.00 NULL NULL 77 76.3 98% 78 30.05 0.0
02 20:55 Calm 0.00 NULL NULL 77.5 75.7 94% 79 30.05 0.0
02 20:35 Calm 0.00 NULL NULL 78.4 75.4 90% 82 30.04 0.0
02 20:15 Calm 0.00 NULL NULL 79.2 74.7 86% 83 30.03 0.0
02 19:55 Calm 0.00 Fair CLR 80.1 74.5 92.8 80.1 83% 85 30.03 0.0
02 19:35 Calm 0.00 Fair CLR 81.1 74.1 79% 87 30.05 0.0
02 19:15 Calm 0.00 Fair CLR 82 73.8 76% 88 30.06 0.0
02 18:55 Calm 0.00 Fair CLR 83.3 73.4 72% 90 30.05 0.0
02 18:35 Calm 0.00 Fair CLR 84.4 73.4 70% 91 30.06 0.0
02 18:15 Calm 0.00 Fair CLR 86 72.7 65% 93 30.05 0.0
02 17:55 Calm 0.00 Fair CLR 87.3 72.7 62% 94 30.04 0.0
02 17:35 Calm 0.00 Fair CLR 86.9 73.4 64% 95 30.06 0.0
02 17:15 Calm 0.00 Fair CLR 87.1 72.3 62% 94 30.07 0.0
02 16:55 N 10 0.00 Fair CLR 86.2 73.2 65% 94 30.05 0.0
02 16:35 Calm 0.00 Fair CLR 88 72.7 61% 95 30.08 0.0
02 16:15 Calm 0.00 Partly Cloudy SCT050 SCT075 88 73.6 62% 96 30.08 0.0
02 15:55 Calm 0.00 Mostly Cloudy SCT055 SCT075 BKN090 88.7 73.9 62% 98 30.08 0.0
02 15:35 Calm 0.00 Overcast SCT035 SCT048 OVC100 88.9 75 64% 99 30.08 0.0
02 15:15 Calm 0.00 Mostly Cloudy SCT035 SCT048 BKN090 91 73.9 57% 101 30.07 0.0
02 14:55 Calm 0.00 Partly Cloudy SCT033 91.4 74.5 58% 102 30.07 0.0
02 14:35 Calm 0.00 Fair CLR 91.4 74.5 58% 102 30.07 0.0
02 14:15 Calm 0.00 Fair CLR 91 74.8 59% 102 30.07 0.0
02 13:55 Calm 0.00 Fair CLR 90.9 74.7 90.9 76.3 59% 101 30.08 0.0
02 13:35 Calm 0.00 Fair CLR 90.5 75 61% 101 30.07 0.0
02 13:15 Calm 0.00 Fair CLR 89.8 75.4 63% 101 30.07 0.0
02 12:55 Calm 0.00 Fair CLR 90.3 75.7 62% 102 30.07 0.0
02 12:35 Calm 0.00 Partly Cloudy SCT023 90 76.8 65% 103 30.07 0.0
02 12:15 Calm 0.00 Partly Cloudy SCT023 89.6 77 67% 103 30.08 0.0
02 11:55 Calm 0.00 Partly Cloudy SCT023 SCT029 88.7 77 68% 101 30.07 0.0
02 11:35 Calm 0.00 Partly Cloudy SCT023 SCT029 88.2 76.5 68% 100 30.07 0.0
02 11:15 Calm 0.00 Partly Cloudy SCT023 87.3 76.3 70% 98 30.08 0.0
02 10:55 Calm 0.00 Fair CLR 86.9 76.1 70% 97 30.08 0.0
02 10:35 Calm 0.00 Fair CLR 86.4 75.6 70% 96 30.08 0.0
02 10:15 Calm 0.00 Fair CLR 86 75.7 72% 96 30.07 0.0
02 09:55 Calm 0.00 Fair CLR 84.7 75.2 73% 93 30.07 0.0
02 09:35 Calm 0.00 Fair CLR 84.6 75.2 74% 93 30.06 0.0
02 09:15 Calm 0.00 Fair CLR 82.2 74.5 78% 89 30.06 0.0
02 08:55 Calm 0.00 Fair CLR 81 74.5 81% 86 30.06 0.0
02 08:35 Calm 0.00 Fair CLR 79.2 73.8 84% 83 30.05 0.0
02 08:15 Calm 0.00 NULL NULL 77 73.9 90% 78 30.05 0.0
02 07:55 Calm 0.00 NULL NULL 76.1 73.6 76.1 71.2 92% 76 30.05 0.0
02 07:35 Calm 0.00 NULL NULL 75.2 74.1 96% 73 30.05 0.0
02 07:15 Calm 0.00 NULL NULL 74.7 74.1 98% 30.05 0.0
02 06:55 Calm 0.00 NULL NULL 75.4 72.9 92% 75 30.05 0.0
02 06:35 Calm 0.00 NULL NULL 74.1 73 96% 30.05 0.0
02 06:15 Calm 0.00 NULL NULL 72.7 72.7 100% 30.04 0.0
02 05:55 Calm 0.00 NULL NULL 72.1 72.1 100% 30.04 0.0
02 05:35 Calm 0.00 NULL NULL 73.8 72.7 96% 30.03 0.0
02 05:15 Calm 0.00 NULL NULL 72.1 72.1 100% 30.02 0.0
02 04:55 Calm 0.00 NULL NULL 72.5 72.5 100% 30.03 0.0
02 04:35 Calm 0.00 NULL NULL 72 72 100% 30.03 0.0
02 04:15 Calm 0.00 NULL NULL 71.8 71.8 100% 30.03 0.0
02 03:55 Calm 0.00 NULL NULL 72 72 100% 30.02 0.0
02 03:35 Calm 0.00 NULL NULL 72.7 72.7 100% 30.03 0.0
02 03:15 Calm 0.00 NULL NULL 72.5 72.5 100% 30.02 0.0
02 02:55 Calm 0.00 NULL NULL 72.7 72.7 100% 30.03 0.0
02 02:35 Calm 0.00 NULL NULL 73.2 73.2 100% 30.02 0.0
02 02:15 Calm 0.00 NULL NULL 73.9 73.9 100% 30.02 0.0
02 01:55 Calm 0.00 NULL NULL 73.4 73.4 81.5 73.4 100% 30.02 0.0
02 01:35 Calm 0.00 NULL NULL 73.8 73.6 99% 30.02 0.0
02 01:15 Calm 0.00 NULL NULL 75.7 73.4 92% 75 30.02 0.0
02 00:55 Calm 0.00 NULL NULL 75.4 73.4 94% 74 30.02 0.0
02 00:35 Calm 0.00 NULL NULL 76.3 73.6 91% 76 30.02 0.0
02 00:15 Calm 0.00 NULL NULL 75.9 73.4 92% 76 30.02 0.0
01 23:55 Calm 0.00 NULL NULL 74.5 74.1 99% 30.01 0.0
01 23:35 N 13 0.00 NULL NULL 74.8 74.3 98% 30 0.0
01 23:15 Calm 0.00 NULL NULL 75.6 73.6 94% 75 30 0.0
01 22:55 Calm 0.00 NULL NULL 75.4 74.1 96% 74 30 0.0
01 22:35 Calm 0.00 NULL NULL 76.3 73.9 93% 76 30 0.0
01 22:15 Calm 0.00 NULL NULL 76.3 74.5 94% 76 30 0.0
01 21:55 Calm 0.00 NULL NULL 76.1 73.8 93% 76 30 0.0
01 21:35 Calm 0.00 Fair CLR 78.1 73.4 86% 81 30 0.0
01 21:15 Calm 0.00 Fair CLR 78.6 73 83% 82 29.99 0.0
01 20:55 Calm 0.00 NULL NULL 78.1 73.6 86% 81 29.97 0.0
01 20:35 Calm 0.00 Fair CLR 80.1 73.8 81% 85 29.97 0.0
01 20:15 Calm 0.00 Fair CLR 80.4 73.8 80% 85 29.97 0.0
01 19:55 Calm 0.00 Fair CLR 81.7 74.1 97.7 81.7 78% 88 29.97 0.0
01 19:35 Calm 0.00 Fair CLR 84.2 72.9 69% 91 29.97 0.0
01 19:15 Calm 0.00 Fair CLR 87.4 72.7 62% 95 29.97 0.0
01 18:55 Calm 0.00 Fair CLR 91 70.9 52% 97 29.97 0.0
01 18:35 Calm 0.00 Fair CLR 92.8 70.5 48% 99 29.98 0.0
Date Time (edt) Wind (mph) Vis. (mi.) Weather Sky Cond. Air Dwpt Max. Min. Relative Humidity Wind Chill (°F) Heat Index (°F) altimeter (in) sea level (mb) 1 hr 3 hr 6 hr
6 hour
Temperature (ºF) Pressure Precipitation (in)